createdAt,value
2023-01-03T00:01:25.922Z,100809.09
2023-01-03T00:02:58.214Z,100803.97
2023-01-03T00:04:30.308Z,100806.44
2023-01-03T00:06:02.335Z,100803.78
2023-01-03T00:07:34.669Z,100807.94
2023-01-03T00:09:16.415Z,100798.56
2023-01-03T00:10:48.382Z,100802.53
2023-01-03T00:12:30.711Z,100799.78
2023-01-03T00:14:03.389Z,100801.59
2023-01-03T00:15:36.490Z,100800.81
2023-01-03T00:17:09.752Z,100803.44
2023-01-03T00:18:41.769Z,100806.81
2023-01-03T00:20:15.938Z,100801.78
2023-01-03T00:21:48.192Z,100800.03
2023-01-03T00:23:20.443Z,100794.00
2023-01-03T00:24:53.584Z,100795.75
2023-01-03T00:26:25.582Z,100809.34
2023-01-03T00:27:57.631Z,100804.22
2023-01-03T00:29:29.761Z,100797.41
2023-01-03T00:31:10.148Z,100800.16
2023-01-03T00:32:42.279Z,100801.78
2023-01-03T00:34:14.376Z,100806.13
2023-01-03T00:35:46.391Z,100806.13
2023-01-03T00:37:18.430Z,100805.25
2023-01-03T00:38:50.530Z,100801.88
2023-01-03T00:40:22.546Z,100800.94
2023-01-03T00:41:54.997Z,100803.50
2023-01-03T00:43:29.887Z,100806.91
2023-01-03T00:45:01.865Z,100803.44
2023-01-03T00:46:34.403Z,100794.78
2023-01-03T00:48:06.625Z,100799.78
2023-01-03T00:49:38.642Z,100793.75
2023-01-03T00:51:15.266Z,100791.31
2023-01-03T00:52:47.371Z,100794.59
2023-01-03T00:54:19.361Z,100790.28
2023-01-03T00:55:51.319Z,100790.28
2023-01-03T00:57:23.348Z,100786.00
2023-01-03T00:58:55.641Z,100781.81
2023-01-03T01:00:27.583Z,100785.97
2023-01-03T01:01:59.705Z,100774.16
2023-01-03T01:03:31.912Z,100779.38
2023-01-03T01:05:04.107Z,100782.78
2023-01-03T01:06:40.381Z,100779.50
2023-01-03T01:08:12.403Z,100777.69
2023-01-03T01:09:44.673Z,100778.59
2023-01-03T01:11:17.399Z,100774.41
2023-01-03T01:12:49.574Z,100779.50
2023-01-03T01:14:29.194Z,100783.78
2023-01-03T01:16:06.998Z,100774.53
2023-01-03T01:17:40.087Z,100781.34
2023-01-03T01:19:12.368Z,100771.97
2023-01-03T01:20:44.503Z,100778.84
2023-01-03T01:22:16.518Z,100781.41
2023-01-03T01:23:48.607Z,100777.06
2023-01-03T01:25:20.654Z,100777.91
2023-01-03T01:26:53.222Z,100775.31
2023-01-03T01:28:25.343Z,100770.91
2023-01-03T01:29:57.550Z,100771.59
2023-01-03T01:31:29.758Z,100765.41
2023-01-03T01:33:01.855Z,100771.41
2023-01-03T01:34:33.978Z,100766.31
2023-01-03T01:36:15.813Z,100771.53
2023-01-03T01:37:47.860Z,100765.44
2023-01-03T01:39:24.217Z,100764.66
2023-01-03T01:40:56.189Z,100767.09
2023-01-03T01:42:46.850Z,100763.75
2023-01-03T01:44:54.106Z,100758.75
2023-01-03T01:46:28.262Z,100763.63
2023-01-03T01:48:03.458Z,100758.31
2023-01-03T01:49:35.404Z,100754.72
2023-01-03T01:51:09.520Z,100752.19
2023-01-03T01:52:51.656Z,100755.59
2023-01-03T01:54:24.708Z,100762.22
2023-01-03T01:56:05.419Z,100753.69
2023-01-03T01:57:39.102Z,100754.50
2023-01-03T01:59:11.916Z,100754.59
2023-01-03T02:00:44.695Z,100756.28
2023-01-03T02:02:20.699Z,100752.97
2023-01-03T02:04:04.702Z,100748.78
2023-01-03T02:05:38.660Z,100750.59
2023-01-03T02:07:11.028Z,100746.22
2023-01-03T02:08:43.022Z,100751.31
2023-01-03T02:10:15.036Z,100751.34
2023-01-03T02:12:45.826Z,100753.16
2023-01-03T02:14:49.892Z,100751.53
2023-01-03T02:16:53.458Z,100749.88
2023-01-03T02:18:34.760Z,100747.25
2023-01-03T02:20:31.703Z,100745.28
2023-01-03T02:22:15.658Z,100746.63
2023-01-03T02:23:59.837Z,100750.22
2023-01-03T02:25:54.994Z,100741.75
2023-01-03T02:27:51.829Z,100737.63
2023-01-03T02:29:51.189Z,100744.44
2023-01-03T02:31:47.903Z,100746.22
2023-01-03T02:33:49.305Z,100750.59
2023-01-03T02:35:37.483Z,100742.91
2023-01-03T02:37:47.534Z,100743.72
2023-01-03T02:39:49.336Z,100744.56
2023-01-03T02:43:09.458Z,100735.25
2023-01-03T02:44:49.843Z,100738.59
2023-01-03T02:46:28.226Z,100737.69
2023-01-03T02:48:10.339Z,100733.50
2023-01-03T02:49:50.093Z,100739.44
2023-01-03T02:51:27.611Z,100740.25
2023-01-03T02:53:03.991Z,100737.69
2023-01-03T02:54:46.845Z,100737.63
2023-01-03T02:56:24.941Z,100732.50
2023-01-03T02:58:02.511Z,100740.13
2023-01-03T02:59:58.060Z,100731.59
2023-01-03T03:01:30.836Z,100730.69
2023-01-03T03:03:06.877Z,100736.75
2023-01-03T03:04:40.387Z,100727.41
2023-01-03T03:06:18.520Z,100733.31
2023-01-03T03:07:50.544Z,100736.00
2023-01-03T03:09:22.690Z,100735.16
2023-01-03T03:12:46.350Z,100716.94
2023-01-03T03:14:23.338Z,100727.41
2023-01-03T03:15:59.536Z,100726.44
2023-01-03T03:17:32.177Z,100720.41
2023-01-03T03:19:14.155Z,100724.75
2023-01-03T03:21:04.793Z,100725.47
2023-01-03T03:23:05.190Z,100723.75
2023-01-03T03:24:52.239Z,100726.19
2023-01-03T03:26:29.269Z,100725.47
2023-01-03T03:28:23.286Z,100724.59
2023-01-03T03:29:57.733Z,100730.69
2023-01-03T03:31:42.163Z,100726.50
2023-01-03T03:33:18.941Z,100723.94
2023-01-03T03:34:51.211Z,100723.81
2023-01-03T03:36:48.591Z,100727.59
2023-01-03T03:38:29.445Z,100727.72
2023-01-03T03:42:04.235Z,100720.91
2023-01-03T03:44:01.860Z,100728.56
2023-01-03T03:45:46.205Z,100731.22
2023-01-03T03:47:53.785Z,100731.84
2023-01-03T03:49:39.668Z,100729.31
2023-01-03T03:51:15.814Z,100733.63
2023-01-03T03:52:50.216Z,100725.03
2023-01-03T03:54:23.837Z,100728.50
2023-01-03T03:55:57.534Z,100727.75
2023-01-03T03:57:30.489Z,100725.88
2023-01-03T03:59:07.793Z,100719.13
2023-01-03T04:00:41.198Z,100731.84
2023-01-03T04:02:14.246Z,100728.44
2023-01-03T04:03:47.975Z,100724.13
2023-01-03T04:05:22.842Z,100722.38
2023-01-03T04:06:55.037Z,100733.28
2023-01-03T04:08:27.073Z,100729.00
2023-01-03T04:09:59.161Z,100730.69
2023-01-03T04:11:31.337Z,100730.69
2023-01-03T04:13:04.519Z,100729.03
2023-01-03T04:14:36.635Z,100734.16
2023-01-03T04:16:08.822Z,100730.69
2023-01-03T04:17:40.908Z,100728.13
2023-01-03T04:19:12.914Z,100731.53
2023-01-03T04:20:45.079Z,100735.84
2023-01-03T04:22:17.027Z,100736.66
2023-01-03T04:23:49.292Z,100734.09
2023-01-03T04:25:21.327Z,100731.50
2023-01-03T04:26:53.416Z,100727.22
2023-01-03T04:28:25.481Z,100732.31
2023-01-03T04:29:58.179Z,100732.31
2023-01-03T04:31:30.210Z,100730.56
2023-01-03T04:33:05.777Z,100739.16
2023-01-03T04:34:37.769Z,100746.03
2023-01-03T04:36:10.269Z,100734.78
2023-01-03T04:37:42.258Z,100742.38
2023-01-03T04:39:14.865Z,100738.91
2023-01-03T04:40:47.188Z,100743.94
2023-01-03T04:42:38.019Z,100748.16
2023-01-03T04:47:30.692Z,100748.78
2023-01-03T04:49:04.162Z,100748.81
2023-01-03T04:50:36.266Z,100753.13
2023-01-03T04:52:08.247Z,100754.91
2023-01-03T04:53:40.214Z,100749.84
2023-01-03T04:55:13.457Z,100748.97
2023-01-03T04:56:45.467Z,100756.72
2023-01-03T04:58:17.786Z,100756.72
2023-01-03T04:59:49.897Z,100755.81
2023-01-03T05:01:22.327Z,100759.28
2023-01-03T05:02:54.450Z,100759.34
2023-01-03T05:04:26.527Z,100755.94
2023-01-03T05:06:02.751Z,100764.59
2023-01-03T05:07:35.120Z,100764.59
2023-01-03T05:09:07.195Z,100761.16
2023-01-03T05:10:39.892Z,100767.19
2023-01-03T05:12:12.630Z,100763.78
2023-01-03T05:13:44.628Z,100753.63
2023-01-03T05:15:16.617Z,100772.44
2023-01-03T05:16:48.706Z,100765.63
2023-01-03T05:18:20.837Z,100765.63
2023-01-03T05:20:11.697Z,100763.06
2023-01-03T05:22:02.383Z,100768.88
2023-01-03T05:23:53.127Z,100769.44
2023-01-03T05:25:43.664Z,100769.25
2023-01-03T05:27:15.693Z,100761.59
2023-01-03T05:28:50.833Z,100763.28
2023-01-03T05:30:22.850Z,100763.94
2023-01-03T05:31:57.517Z,100769.22
2023-01-03T05:33:29.608Z,100765.72
2023-01-03T05:35:01.639Z,100772.59
2023-01-03T05:36:33.736Z,100777.69
2023-01-03T05:38:05.831Z,100778.47
2023-01-03T05:39:37.910Z,100781.91
2023-01-03T05:41:10.454Z,100778.47
2023-01-03T05:42:42.465Z,100780.69
2023-01-03T05:44:14.465Z,100783.84
2023-01-03T05:45:52.740Z,100780.34
2023-01-03T05:47:26.037Z,100784.28
2023-01-03T05:48:58.151Z,100794.44
2023-01-03T05:50:30.192Z,100790.13
2023-01-03T05:52:02.353Z,100785.88
2023-01-03T05:53:34.396Z,100789.41
2023-01-03T05:55:06.748Z,100798.06
2023-01-03T05:56:38.864Z,100781.06
2023-01-03T05:58:11.805Z,100793.22
2023-01-03T05:59:44.856Z,100797.59
2023-01-03T06:01:17.759Z,100795.97
2023-01-03T06:02:49.872Z,100797.72
2023-01-03T06:04:22.149Z,100802.91
2023-01-03T06:05:54.281Z,100797.03
2023-01-03T06:07:26.237Z,100800.47
2023-01-03T06:08:58.269Z,100806.38
2023-01-03T06:10:30.497Z,100802.78
2023-01-03T06:12:02.754Z,100804.28
2023-01-03T06:13:35.149Z,100804.25
2023-01-03T06:15:07.677Z,100801.72
2023-01-03T06:16:58.208Z,100801.84
2023-01-03T06:18:30.370Z,100803.78
2023-01-03T06:20:02.513Z,100808.13
2023-01-03T06:21:35.124Z,100812.47
2023-01-03T06:23:07.116Z,100813.41
2023-01-03T06:24:39.084Z,100802.44
2023-01-03T06:26:11.566Z,100803.31
2023-01-03T06:27:43.541Z,100806.78
2023-01-03T06:29:15.601Z,100809.41
2023-01-03T06:30:47.645Z,100808.59
2023-01-03T06:32:19.662Z,100818.09
2023-01-03T06:33:51.800Z,100808.88
2023-01-03T06:35:23.883Z,100813.25
2023-01-03T06:36:55.854Z,100815.09
2023-01-03T06:38:29.308Z,100814.50
2023-01-03T06:40:01.653Z,100818.03
2023-01-03T06:41:33.704Z,100821.66
2023-01-03T06:43:05.821Z,100820.97
2023-01-03T06:44:37.801Z,100822.59
2023-01-03T06:46:29.911Z,100819.44
2023-01-03T06:48:24.456Z,100828.94
2023-01-03T06:50:31.825Z,100820.41
2023-01-03T06:54:04.996Z,100824.94
2023-01-03T06:55:39.796Z,100817.38
2023-01-03T06:57:11.730Z,100822.66
2023-01-03T06:58:59.144Z,100820.31
2023-01-03T07:00:31.622Z,100829.13
2023-01-03T07:02:05.750Z,100826.84
2023-01-03T07:03:37.837Z,100832.09
2023-01-03T07:05:10.117Z,100822.06
2023-01-03T07:06:42.498Z,100822.28
2023-01-03T07:08:14.777Z,100823.38
2023-01-03T07:09:46.851Z,100822.75
2023-01-03T07:11:18.948Z,100830.63
2023-01-03T07:13:09.761Z,100837.69
2023-01-03T07:14:41.785Z,100823.38
2023-01-03T07:16:18.501Z,100826.22
2023-01-03T07:17:50.611Z,100827.19
2023-01-03T07:19:22.597Z,100831.59
2023-01-03T07:20:54.809Z,100829.25
2023-01-03T07:22:26.771Z,100821.69
2023-01-03T07:24:02.082Z,100827.81
2023-01-03T07:25:34.088Z,100832.16
2023-01-03T07:27:09.966Z,100838.28
2023-01-03T07:28:42.817Z,100834.91
2023-01-03T07:30:15.171Z,100836.66
2023-01-03T07:31:47.298Z,100834.91
2023-01-03T07:33:19.656Z,100842.69
2023-01-03T07:34:51.668Z,100831.63
2023-01-03T07:36:23.745Z,100835.09
2023-01-03T07:37:55.714Z,100832.69
2023-01-03T07:39:27.868Z,100839.66
2023-01-03T07:41:01.039Z,100834.66
2023-01-03T07:42:51.554Z,100838.31
2023-01-03T07:44:23.620Z,100838.44
2023-01-03T07:45:55.773Z,100838.63
2023-01-03T07:47:27.830Z,100837.13
2023-01-03T07:49:07.885Z,100837.31
2023-01-03T07:50:43.215Z,100832.34
2023-01-03T07:52:15.344Z,100834.28
2023-01-03T07:53:50.583Z,100833.66
2023-01-03T07:55:25.014Z,100834.78
2023-01-03T07:56:57.007Z,100828.91
2023-01-03T07:58:29.103Z,100842.91
2023-01-03T08:00:01.229Z,100839.69
2023-01-03T08:01:39.374Z,100836.56
2023-01-03T08:03:12.059Z,100839.16
2023-01-03T08:04:44.289Z,100844.47
2023-01-03T08:06:19.041Z,100837.00
2023-01-03T08:07:52.063Z,100839.66
2023-01-03T08:09:42.906Z,100833.81
2023-01-03T08:11:34.110Z,100840.00
2023-01-03T08:13:18.816Z,100834.22
2023-01-03T08:14:50.985Z,100834.31
2023-01-03T08:16:23.204Z,100832.72
2023-01-03T08:17:55.410Z,100837.16
2023-01-03T08:19:27.599Z,100844.97
2023-01-03T08:20:59.736Z,100840.78
2023-01-03T08:22:33.474Z,100843.47
2023-01-03T08:24:05.611Z,100851.31
2023-01-03T08:25:37.840Z,100841.97
2023-01-03T08:27:09.943Z,100841.22
2023-01-03T08:28:44.914Z,100844.78
2023-01-03T08:30:16.894Z,100856.00
2023-01-03T08:31:53.465Z,100841.53
2023-01-03T08:33:27.457Z,100846.78
2023-01-03T08:35:00.388Z,100846.81
2023-01-03T08:36:40.218Z,100847.81
2023-01-03T08:38:15.791Z,100841.88
2023-01-03T08:39:52.372Z,100840.25
2023-01-03T08:41:27.411Z,100832.56
2023-01-03T08:42:59.536Z,100840.34
2023-01-03T08:44:31.819Z,100839.59
2023-01-03T08:46:05.908Z,100841.38
2023-01-03T08:47:38.269Z,100831.09
2023-01-03T08:49:11.207Z,100828.56
2023-01-03T08:50:43.366Z,100828.59
2023-01-03T08:52:15.569Z,100823.50
2023-01-03T08:53:47.670Z,100832.16
2023-01-03T08:55:19.990Z,100827.00
2023-01-03T08:56:52.099Z,100818.44
2023-01-03T08:58:24.223Z,100821.88
2023-01-03T08:59:56.255Z,100829.66
2023-01-03T09:01:28.594Z,100817.59
2023-01-03T09:03:00.907Z,100825.38
2023-01-03T09:04:33.111Z,100819.31
2023-01-03T09:06:05.887Z,100818.47
2023-01-03T09:07:38.039Z,100821.91
2023-01-03T09:09:10.310Z,100817.59
2023-01-03T09:10:47.538Z,100814.97
2023-01-03T09:12:20.889Z,100812.34
2023-01-03T09:13:55.840Z,100808.84
2023-01-03T09:15:28.031Z,100810.59
2023-01-03T09:17:00.084Z,100810.56
2023-01-03T09:18:32.424Z,100813.09
2023-01-03T09:20:07.062Z,100804.47
2023-01-03T09:21:39.082Z,100799.28
2023-01-03T09:23:11.178Z,100799.22
2023-01-03T09:24:43.248Z,100799.16
2023-01-03T09:26:15.306Z,100794.78
2023-01-03T09:27:48.200Z,100790.41
2023-01-03T09:29:20.255Z,100791.25
2023-01-03T09:30:53.227Z,100793.78
2023-01-03T09:32:25.268Z,100787.69
2023-01-03T09:33:57.327Z,100780.69
2023-01-03T09:35:29.362Z,100786.63
2023-01-03T09:37:01.430Z,100784.78
2023-01-03T09:38:33.491Z,100776.06
2023-01-03T09:40:06.081Z,100775.03
2023-01-03T09:41:39.460Z,100773.13
2023-01-03T09:43:25.282Z,100775.56
2023-01-03T09:44:59.085Z,100782.38
2023-01-03T09:46:31.422Z,100772.63
2023-01-03T09:48:05.097Z,100769.13
2023-01-03T09:49:51.949Z,100769.03
2023-01-03T09:51:54.375Z,100760.31
2023-01-03T09:53:52.281Z,100753.28
2023-01-03T09:56:04.529Z,100755.72
2023-01-03T09:57:55.789Z,100753.88
2023-01-03T09:59:54.241Z,100745.78
2023-01-03T10:01:47.626Z,100749.66
2023-01-03T10:03:50.265Z,100740.81
2023-01-03T10:05:48.181Z,100738.88
2023-01-03T10:07:44.501Z,100735.16
2023-01-03T10:09:28.925Z,100730.47
2023-01-03T10:11:10.068Z,100732.84
2023-01-03T10:12:59.145Z,100729.84
2023-01-03T10:14:44.609Z,100734.47
2023-01-03T10:16:19.459Z,100720.44
2023-01-03T10:17:54.475Z,100725.63
2023-01-03T10:19:44.634Z,100718.97
2023-01-03T10:21:27.673Z,100728.50
2023-01-03T10:22:59.776Z,100717.09
2023-01-03T10:24:33.525Z,100710.69
2023-01-03T10:26:15.634Z,100715.66
2023-01-03T10:27:54.200Z,100708.50
2023-01-03T10:29:26.568Z,100706.69
2023-01-03T10:31:10.718Z,100708.06
2023-01-03T10:32:54.807Z,100707.75
2023-01-03T10:34:26.841Z,100705.16
2023-01-03T10:35:58.924Z,100704.09
2023-01-03T10:37:30.960Z,100710.88
2023-01-03T10:39:08.853Z,100705.31
2023-01-03T10:40:44.664Z,100704.34
2023-01-03T10:42:19.123Z,100699.75
2023-01-03T10:44:01.470Z,100702.13
2023-01-03T10:45:41.579Z,100707.28
2023-01-03T10:47:16.863Z,100702.78
2023-01-03T10:49:25.807Z,100694.00
2023-01-03T10:50:46.444Z,100695.81
2023-01-03T10:52:23.366Z,100690.56
2023-01-03T10:53:57.160Z,100686.97
2023-01-03T10:55:29.158Z,100687.91
2023-01-03T10:57:01.251Z,100679.94
2023-01-03T10:58:36.540Z,100685.81
2023-01-03T11:00:35.067Z,100685.22
2023-01-03T11:02:13.123Z,100682.47
2023-01-03T11:03:51.127Z,100680.00
2023-01-03T11:05:25.927Z,100669.44
2023-01-03T11:07:13.694Z,100671.75
2023-01-03T11:08:49.353Z,100676.84
2023-01-03T11:10:21.910Z,100675.66
2023-01-03T11:12:04.100Z,100674.34
2023-01-03T11:13:41.415Z,100669.84
2023-01-03T11:15:38.767Z,100669.81
2023-01-03T11:17:12.873Z,100666.50
2023-01-03T11:19:05.475Z,100661.28
2023-01-03T11:21:07.432Z,100663.78
2023-01-03T11:22:44.521Z,100661.16
2023-01-03T11:24:43.677Z,100657.63
2023-01-03T11:26:36.667Z,100645.25
2023-01-03T11:28:30.318Z,100650.13
2023-01-03T11:32:27.935Z,100649.84
2023-01-03T11:35:11.508Z,100647.84
2023-01-03T11:36:35.027Z,100645.91
2023-01-03T11:38:14.129Z,100643.78
2023-01-03T11:40:24.739Z,100636.63
2023-01-03T11:42:35.364Z,100635.25
2023-01-03T11:44:20.918Z,100632.53
2023-01-03T11:46:17.994Z,100633.34
2023-01-03T11:48:44.115Z,100627.06
2023-01-03T11:50:28.984Z,100631.06
2023-01-03T11:52:10.523Z,100628.66
2023-01-03T11:54:24.187Z,100630.25
2023-01-03T11:56:27.272Z,100621.88
2023-01-03T11:58:29.070Z,100629.03
2023-01-03T12:00:25.633Z,100631.38
2023-01-03T12:02:22.507Z,100632.13
2023-01-03T12:03:57.856Z,100623.41
2023-01-03T12:05:48.571Z,100615.06
2023-01-03T12:09:23.924Z,100619.00
2023-01-03T12:11:11.214Z,100623.97
2023-01-03T12:12:55.384Z,100623.97
2023-01-03T12:14:32.497Z,100610.88
2023-01-03T12:16:21.167Z,100612.59
2023-01-03T12:18:24.161Z,100609.16
2023-01-03T12:20:15.916Z,100611.41
2023-01-03T12:22:18.121Z,100611.31
2023-01-03T12:23:57.527Z,100611.41
2023-01-03T12:25:37.815Z,100609.84
2023-01-03T12:27:24.136Z,100610.69
2023-01-03T12:29:12.278Z,100607.09
2023-01-03T12:30:48.865Z,100609.72
2023-01-03T12:32:40.362Z,100613.22
2023-01-03T12:34:44.393Z,100615.03
2023-01-03T12:36:37.826Z,100611.50
2023-01-03T12:38:11.015Z,100615.13
2023-01-03T12:39:43.071Z,100615.69
2023-01-03T12:41:33.267Z,100611.13
2023-01-03T12:43:05.281Z,100605.09
2023-01-03T12:44:43.000Z,100604.13
2023-01-03T12:46:30.651Z,100606.06
2023-01-03T12:48:09.623Z,100606.06
2023-01-03T12:49:47.202Z,100607.03
2023-01-03T12:51:22.056Z,100606.91
2023-01-03T12:53:10.693Z,100604.88
2023-01-03T12:55:15.151Z,100614.09
2023-01-03T12:57:11.820Z,100612.91
2023-01-03T12:59:08.386Z,100610.66
2023-01-03T13:01:15.978Z,100621.19
2023-01-03T13:02:54.155Z,100613.50
2023-01-03T13:04:29.394Z,100620.31
2023-01-03T13:06:06.916Z,100621.19
2023-01-03T13:07:40.884Z,100621.88
2023-01-03T13:09:21.487Z,100620.13
2023-01-03T13:10:55.566Z,100615.06
2023-01-03T13:12:30.380Z,100618.53
2023-01-03T13:14:15.637Z,100622.84
2023-01-03T13:15:49.016Z,100614.41
2023-01-03T13:17:26.762Z,100611.06
2023-01-03T13:19:24.388Z,100622.13
2023-01-03T13:20:56.815Z,100620.72
2023-01-03T13:22:28.977Z,100622.97
2023-01-03T13:24:01.050Z,100617.91
2023-01-03T13:25:39.618Z,100627.66
2023-01-03T13:27:23.218Z,100628.00
2023-01-03T13:29:34.723Z,100621.19
2023-01-03T13:31:18.333Z,100623.88
2023-01-03T13:33:12.282Z,100618.88
2023-01-03T13:34:44.361Z,100632.28
2023-01-03T13:36:16.422Z,100626.13
2023-01-03T13:37:55.157Z,100628.78
2023-01-03T13:39:39.064Z,100624.34
2023-01-03T13:41:36.581Z,100632.59
2023-01-03T13:43:08.680Z,100628.78
2023-01-03T13:44:40.680Z,100628.13
2023-01-03T13:46:23.501Z,100636.94
2023-01-03T13:47:56.146Z,100638.81
2023-01-03T13:49:28.929Z,100635.34
2023-01-03T13:51:14.586Z,100634.44
2023-01-03T13:53:12.814Z,100631.78
2023-01-03T13:54:59.017Z,100633.59
2023-01-03T13:56:55.265Z,100636.38
2023-01-03T13:58:52.221Z,100640.63
2023-01-03T14:00:24.711Z,100643.56
2023-01-03T14:02:03.352Z,100638.63
2023-01-03T14:04:08.799Z,100643.97
2023-01-03T14:06:04.825Z,100638.81
2023-01-03T14:08:08.007Z,100646.88
2023-01-03T14:09:49.071Z,100648.94
2023-01-03T14:11:30.169Z,100646.63
2023-01-03T14:13:39.043Z,100651.03
2023-01-03T14:15:25.835Z,100655.44
2023-01-03T14:16:59.360Z,100654.72
2023-01-03T14:20:24.708Z,100662.69
2023-01-03T14:22:26.594Z,100658.63
2023-01-03T14:24:00.858Z,100660.56
2023-01-03T14:25:44.160Z,100662.28
2023-01-03T14:27:18.722Z,100657.97
2023-01-03T14:28:55.318Z,100659.19
2023-01-03T14:30:32.932Z,100657.34
2023-01-03T14:32:05.547Z,100661.75
2023-01-03T14:33:42.032Z,100661.09
2023-01-03T14:35:34.038Z,100660.13
2023-01-03T14:37:18.223Z,100656.84
2023-01-03T14:38:53.914Z,100663.19
2023-01-03T14:40:25.922Z,100656.31
2023-01-03T14:41:58.405Z,100657.31
2023-01-03T14:43:32.896Z,100662.53
2023-01-03T14:45:07.370Z,100662.53
2023-01-03T14:46:50.454Z,100662.56
2023-01-03T14:49:58.839Z,100663.75
2023-01-03T14:51:33.373Z,100662.16
2023-01-03T14:53:05.496Z,100662.38
2023-01-03T14:54:38.091Z,100673.84
2023-01-03T14:56:11.124Z,100664.47
2023-01-03T14:57:44.462Z,100676.03
2023-01-03T14:59:17.388Z,100662.25
2023-01-03T15:00:51.085Z,100666.06
2023-01-03T15:02:24.055Z,100675.94
2023-01-03T15:03:56.443Z,100668.41
2023-01-03T15:05:38.777Z,100666.94
2023-01-03T15:07:34.446Z,100669.78
2023-01-03T15:09:22.692Z,100674.41
2023-01-03T15:10:57.521Z,100674.66
2023-01-03T15:12:31.458Z,100678.38
2023-01-03T15:14:06.226Z,100672.50
2023-01-03T15:15:39.300Z,100676.19
2023-01-03T15:17:11.353Z,100678.13
2023-01-03T15:18:44.769Z,100678.25
2023-01-03T15:20:17.408Z,100682.69
2023-01-03T15:21:49.918Z,100681.13
2023-01-03T15:23:41.070Z,100689.03
2023-01-03T15:25:34.132Z,100687.50
2023-01-03T15:27:37.890Z,100689.38
2023-01-03T15:29:21.140Z,100684.38
2023-01-03T15:30:55.273Z,100686.31
2023-01-03T15:32:27.335Z,100693.34
2023-01-03T15:34:17.107Z,100692.56
2023-01-03T15:35:51.569Z,100692.69
2023-01-03T15:37:24.469Z,100691.09
2023-01-03T15:38:56.573Z,100698.09
2023-01-03T15:40:31.034Z,100702.50
2023-01-03T15:44:18.214Z,100698.34
2023-01-03T15:46:03.967Z,100691.50
2023-01-03T15:47:36.347Z,100687.31
2023-01-03T15:49:10.340Z,100707.25
2023-01-03T15:50:51.656Z,100706.44
2023-01-03T15:52:23.692Z,100706.53
2023-01-03T15:53:55.715Z,100708.31
2023-01-03T15:55:27.816Z,100708.41
2023-01-03T15:57:02.816Z,100715.31
2023-01-03T15:58:36.805Z,100717.09
2023-01-03T16:00:11.414Z,100715.41
2023-01-03T16:01:43.851Z,100725.81
2023-01-03T16:03:18.158Z,100723.25
2023-01-03T16:04:50.598Z,100719.81
2023-01-03T16:06:22.614Z,100717.28
2023-01-03T16:07:54.821Z,100726.84
2023-01-03T16:09:26.766Z,100724.28
2023-01-03T16:11:00.780Z,100727.75
2023-01-03T16:12:37.005Z,100726.94
2023-01-03T16:14:18.047Z,100725.22
2023-01-03T16:15:50.982Z,100720.94
2023-01-03T16:17:26.721Z,100731.31
2023-01-03T16:18:58.865Z,100731.31
2023-01-03T16:20:33.586Z,100729.59
2023-01-03T16:22:34.026Z,100724.47
2023-01-03T16:23:57.716Z,100738.25
2023-01-03T16:25:29.815Z,100740.88
2023-01-03T16:27:12.140Z,100743.44
2023-01-03T16:28:44.187Z,100741.75
2023-01-03T16:30:16.252Z,100745.19
2023-01-03T16:31:48.354Z,100745.19
2023-01-03T16:33:20.986Z,100752.09
2023-01-03T16:34:53.237Z,100752.09
2023-01-03T16:36:28.166Z,100753.81
2023-01-03T16:38:00.277Z,100755.53
2023-01-03T16:39:32.363Z,100759.84
2023-01-03T16:41:04.647Z,100767.59
2023-01-03T16:42:36.712Z,100765.00
2023-01-03T16:44:08.755Z,100768.44
2023-01-03T16:45:47.194Z,100771.88
2023-01-03T16:47:26.226Z,100769.25
2023-01-03T16:48:59.818Z,100779.59
2023-01-03T16:50:32.894Z,100773.56
2023-01-03T16:52:05.225Z,100775.28
2023-01-03T16:53:38.969Z,100777.84
2023-01-03T16:55:24.727Z,100777.88
2023-01-03T16:56:56.865Z,100776.06
2023-01-03T16:58:29.266Z,100773.47
2023-01-03T17:00:01.384Z,100774.31
2023-01-03T17:01:33.511Z,100782.03
2023-01-03T17:03:05.905Z,100781.16
2023-01-03T17:04:38.107Z,100778.53
2023-01-03T17:06:37.654Z,100788.00
2023-01-03T17:08:22.073Z,100789.69
2023-01-03T17:09:54.080Z,100789.66
2023-01-03T17:11:26.928Z,100785.34
2023-01-03T17:12:59.957Z,100787.06
2023-01-03T17:14:35.973Z,100782.72
2023-01-03T17:16:26.011Z,100787.88
2023-01-03T17:17:58.140Z,100786.09
2023-01-03T17:21:33.928Z,100782.69
2023-01-03T17:23:06.052Z,100789.53
2023-01-03T17:24:38.153Z,100788.59
2023-01-03T17:26:15.689Z,100789.47
2023-01-03T17:27:52.314Z,100797.16
2023-01-03T17:29:25.994Z,100795.41
2023-01-03T17:30:57.995Z,100801.38
2023-01-03T17:32:30.886Z,100793.56
2023-01-03T17:34:16.363Z,100802.16
2023-01-03T17:35:48.551Z,100800.38
2023-01-03T17:37:21.750Z,100796.88
2023-01-03T17:38:55.306Z,100795.09
2023-01-03T17:40:33.205Z,100807.13
2023-01-03T17:42:16.273Z,100802.78
2023-01-03T17:43:48.472Z,100801.00
2023-01-03T17:45:39.580Z,100807.00
2023-01-03T17:47:36.279Z,100802.72
2023-01-03T17:49:25.721Z,100805.25
2023-01-03T17:50:58.380Z,100808.63
2023-01-03T17:52:33.065Z,100804.28
2023-01-03T17:54:05.204Z,100810.25
2023-01-03T17:55:37.261Z,100806.78
2023-01-03T17:57:11.303Z,100813.56
2023-01-03T17:58:43.701Z,100815.16
2023-01-03T18:00:22.009Z,100814.16
2023-01-03T18:01:55.086Z,100814.88
2023-01-03T18:03:27.312Z,100822.50
2023-01-03T18:05:16.410Z,100813.84
2023-01-03T18:07:00.334Z,100819.88
2023-01-03T18:08:32.644Z,100817.22
2023-01-03T18:10:06.955Z,100818.03
2023-01-03T18:11:40.190Z,100818.03
2023-01-03T18:13:27.343Z,100824.03
2023-01-03T18:14:59.522Z,100817.94
2023-01-03T18:16:33.765Z,100817.94
2023-01-03T18:18:05.891Z,100813.50
2023-01-03T18:19:40.857Z,100812.66
2023-01-03T18:21:24.198Z,100820.41
2023-01-03T18:22:56.287Z,100811.72
2023-01-03T18:24:31.401Z,100823.78
2023-01-03T18:26:06.317Z,100824.66
2023-01-03T18:27:38.436Z,100819.44
2023-01-03T18:29:14.933Z,100817.75
2023-01-03T18:30:47.029Z,100824.56
2023-01-03T18:32:29.213Z,100817.75
2023-01-03T18:34:04.831Z,100828.84
2023-01-03T18:35:38.353Z,100821.03
2023-01-03T18:37:10.711Z,100827.06
2023-01-03T18:38:43.081Z,100828.75
2023-01-03T18:40:20.851Z,100827.06
2023-01-03T18:41:53.164Z,100833.91
2023-01-03T18:43:25.423Z,100816.72
2023-01-03T18:44:57.451Z,100823.63
2023-01-03T18:46:29.662Z,100826.16
2023-01-03T18:48:01.883Z,100833.88
2023-01-03T18:49:33.939Z,100831.31
2023-01-03T18:51:06.130Z,100827.00
2023-01-03T18:52:41.505Z,100827.88
2023-01-03T18:54:18.241Z,100835.59
2023-01-03T18:55:50.533Z,100837.22
2023-01-03T18:57:23.156Z,100829.47
2023-01-03T18:59:01.859Z,100830.25
2023-01-03T19:00:34.695Z,100831.09
2023-01-03T19:02:15.121Z,100826.75
2023-01-03T19:03:47.487Z,100838.72